Time;durP1;ratioP1;P1;durP2;ratioP2;P2;SDS_P1;SDS_P2;PMS_P1;PMS_P2;Temp;Humidity;BMP_temperature;BMP_pressure;BME280_temperature;BME280_humidity;BME280_pressure;Samples;Min_cycle;Max_cycle;Signal;HPM_P1;HPM_P2
2021/07/29 00:02:22;;;;;;;36.50;21.02;;;;;;;;;;4972258;28;20780;-74
2021/07/29 00:04:47;;;;;;;27.05;18.92;;;;;;;;;;4964638;28;20066;-75
2021/07/29 00:07:13;;;;;;;23.80;17.67;;;;;;;;;;4964618;28;20442;-75
2021/07/29 00:09:38;;;;;;;25.25;17.33;;;;;;;;;;4972049;28;20037;-74
2021/07/29 00:12:04;;;;;;;22.85;16.52;;;;;;;;;;4972997;28;20113;-79
2021/07/29 00:14:29;;;;;;;22.20;15.40;;;;;;;;;;4972599;28;20035;-74
2021/07/29 00:16:59;;;;;;;19.77;15.63;;;;;;;;;;4972988;28;20382;-79
2021/07/29 00:19:31;;;;;;;18.90;14.57;;;;;;;;;;4971282;28;20035;-74
2021/07/29 00:21:56;;;;;;;17.30;14.60;;;;;;;;;;4971464;28;20033;-74
2021/07/29 00:24:25;;;;;;;19.48;13.93;;;;;;;;;;4973554;28;20446;-75
2021/07/29 00:26:51;;;;;;;18.83;14.40;;;;;;;;;;4971928;28;20081;-74
2021/07/29 00:29:16;;;;;;;16.33;13.40;;;;;;;;;;4973183;28;20031;-73
2021/07/29 00:31:42;;;;;;;19.95;13.07;;;;;;;;;;4973571;28;20579;-74
2021/07/29 00:34:07;;;;;;;16.52;13.50;;;;;;;;;;4973454;28;20129;-74
2021/07/29 00:36:33;;;;;;;19.95;13.65;;;;;;;;;;4973148;28;20074;-74
2021/07/29 00:38:58;;;;;;;19.85;14.93;;;;;;;;;;4973619;28;20453;-74
2021/07/29 00:41:23;;;;;;;19.58;14.63;;;;;;;;;;4977559;28;20081;-74
2021/07/29 00:44:02;;;;;;;21.27;14.20;;;;;;;;;;4992830;28;20459;-74
2021/07/29 00:46:29;;;;;;;20.63;13.48;;;;;;;;;;4967274;28;20030;-74
2021/07/29 00:48:55;;;;;;;18.70;13.40;;;;;;;;;;4972908;28;20126;-74
2021/07/29 00:51:22;;;;;;;18.55;13.27;;;;;;;;;;4972866;28;20038;-74
2021/07/29 00:53:47;;;;;;;17.52;13.85;;;;;;;;;;4973317;28;20026;-74
2021/07/29 00:56:13;;;;;;;16.40;13.02;;;;;;;;;;4973363;28;20037;-74
2021/07/29 00:58:38;;;;;;;17.45;12.80;;;;;;;;;;4973435;28;20027;-74
2021/07/29 01:01:03;;;;;;;17.17;12.38;;;;;;;;;;4971601;28;20038;-75
2021/07/29 01:03:29;;;;;;;17.40;12.55;;;;;;;;;;4972572;28;20031;-75
2021/07/29 01:05:54;;;;;;;19.42;12.52;;;;;;;;;;4971560;28;20045;-75
2021/07/29 01:08:20;;;;;;;15.38;11.73;;;;;;;;;;4972956;28;20019;-75
2021/07/29 01:10:45;;;;;;;17.17;12.07;;;;;;;;;;4973220;28;20029;-75
2021/07/29 01:13:11;;;;;;;16.88;12.30;;;;;;;;;;4973028;28;20042;-75
2021/07/29 01:15:36;;;;;;;17.13;12.48;;;;;;;;;;4972868;28;20077;-74
2021/07/29 01:18:02;;;;;;;19.30;12.45;;;;;;;;;;4973393;28;20026;-75
2021/07/29 01:20:29;;;;;;;17.00;12.15;;;;;;;;;;4972731;28;20027;-75
2021/07/29 01:22:54;;;;;;;18.08;11.82;;;;;;;;;;4953597;28;20027;-75
2021/07/29 01:25:20;;;;;;;18.73;11.85;;;;;;;;;;4956839;28;20029;-75
2021/07/29 01:27:45;;;;;;;21.30;12.80;;;;;;;;;;4973025;28;20509;-75
2021/07/29 01:30:12;;;;;;;16.73;11.80;;;;;;;;;;4972813;28;20035;-75
2021/07/29 01:32:39;;;;;;;18.00;11.57;;;;;;;;;;4973062;28;20035;-75
2021/07/29 01:35:08;;;;;;;15.82;11.15;;;;;;;;;;4972030;28;20117;-75
2021/07/29 01:37:34;;;;;;;17.10;11.38;;;;;;;;;;4969234;28;20022;-74
2021/07/29 01:39:59;;;;;;;18.20;12.68;;;;;;;;;;4972835;28;20594;-75
2021/07/29 01:42:25;;;;;;;15.50;11.20;;;;;;;;;;4983957;28;20497;-75
2021/07/29 01:44:50;;;;;;;15.65;11.68;;;;;;;;;;4991935;28;20474;-74
2021/07/29 01:47:15;;;;;;;16.80;12.07;;;;;;;;;;4972485;28;20026;-75
2021/07/29 01:49:41;;;;;;;12.38;9.50;;;;;;;;;;4971205;28;20031;-75
2021/07/29 01:52:06;;;;;;;17.92;10.77;;;;;;;;;;4981718;28;20026;-74
2021/07/29 01:54:32;;;;;;;14.45;10.75;;;;;;;;;;4977720;28;20030;-75
2021/07/29 01:56:57;;;;;;;18.00;10.88;;;;;;;;;;4971379;28;20027;-74
2021/07/29 01:59:23;;;;;;;16.23;11.68;;;;;;;;;;4972882;28;20019;-75
2021/07/29 02:01:48;;;;;;;17.40;11.63;;;;;;;;;;4972445;28;20031;-75
2021/07/29 02:04:14;;;;;;;15.90;11.20;;;;;;;;;;4972501;28;20023;-74
2021/07/29 02:06:40;;;;;;;22.55;11.85;;;;;;;;;;4972337;28;20027;-74
2021/07/29 02:09:05;;;;;;;16.52;11.25;;;;;;;;;;4972445;28;20058;-75
2021/07/29 02:11:34;;;;;;;23.10;11.60;;;;;;;;;;4972542;28;20031;-74
2021/07/29 02:14:00;;;;;;;17.95;11.55;;;;;;;;;;4972718;28;20033;-75
2021/07/29 02:16:26;;;;;;;19.42;11.60;;;;;;;;;;4972210;28;20038;-75
2021/07/29 02:18:52;;;;;;;18.63;11.70;;;;;;;;;;4972434;28;20025;-74
2021/07/29 02:21:17;;;;;;;16.45;11.25;;;;;;;;;;4971832;28;20632;-74
2021/07/29 02:23:45;;;;;;;16.00;10.10;;;;;;;;;;4972724;28;20085;-74
2021/07/29 02:26:11;;;;;;;14.35;9.80;;;;;;;;;;4972802;28;20022;-74
2021/07/29 02:28:36;;;;;;;13.40;8.98;;;;;;;;;;4971062;28;20117;-74
2021/07/29 02:31:01;;;;;;;13.75;9.57;;;;;;;;;;4972132;28;20031;-75
2021/07/29 02:33:27;;;;;;;14.05;9.70;;;;;;;;;;4971977;28;20055;-74
2021/07/29 02:35:52;;;;;;;14.95;9.35;;;;;;;;;;4975646;28;20130;-74
2021/07/29 02:38:18;;;;;;;14.65;9.38;;;;;;;;;;4975848;28;20023;-74
2021/07/29 02:40:43;;;;;;;13.90;8.82;;;;;;;;;;4975955;28;20029;-74
2021/07/29 02:43:09;;;;;;;17.38;9.73;;;;;;;;;;4985586;28;20026;-74
2021/07/29 02:45:35;;;;;;;14.10;10.27;;;;;;;;;;4975666;28;20565;-74
2021/07/29 02:48:00;;;;;;;15.38;8.45;;;;;;;;;;4975845;28;20113;-74
2021/07/29 02:50:26;;;;;;;12.50;8.85;;;;;;;;;;4975374;28;20031;-74
2021/07/29 02:52:51;;;;;;;13.60;9.50;;;;;;;;;;4975572;28;20042;-74
2021/07/29 02:55:16;;;;;;;12.93;8.25;;;;;;;;;;4975278;28;20035;-75
2021/07/29 02:57:42;;;;;;;13.60;8.98;;;;;;;;;;4974069;28;20035;-75
2021/07/29 03:00:08;;;;;;;14.55;8.95;;;;;;;;;;4975421;28;20050;-74
2021/07/29 03:02:33;;;;;;;13.07;9.30;;;;;;;;;;4975269;28;20066;-75
2021/07/29 03:04:59;;;;;;;11.30;8.57;;;;;;;;;;4975373;28;20034;-75
2021/07/29 03:07:26;;;;;;;11.82;8.55;;;;;;;;;;4974917;28;20027;-75
2021/07/29 03:09:52;;;;;;;12.57;8.70;;;;;;;;;;4975486;28;20023;-75
2021/07/29 03:12:18;;;;;;;14.23;10.13;;;;;;;;;;4974872;28;20568;-75
2021/07/29 03:14:44;;;;;;;11.52;9.35;;;;;;;;;;4975351;28;20022;-75
2021/07/29 03:17:10;;;;;;;13.07;9.23;;;;;;;;;;4975176;28;20451;-75
2021/07/29 03:19:35;;;;;;;12.38;9.35;;;;;;;;;;4974756;28;20031;-75
2021/07/29 03:22:01;;;;;;;14.35;9.48;;;;;;;;;;4974733;28;20030;-75
2021/07/29 03:24:26;;;;;;;15.68;10.20;;;;;;;;;;4974923;28;20029;-75
2021/07/29 03:26:51;;;;;;;13.68;10.07;;;;;;;;;;4974886;28;20062;-75
2021/07/29 03:29:17;;;;;;;17.63;10.13;;;;;;;;;;4974964;28;20050;-75
2021/07/29 03:31:42;;;;;;;13.55;10.00;;;;;;;;;;4974790;28;20038;-75
2021/07/29 03:34:08;;;;;;;15.00;9.77;;;;;;;;;;4974559;28;20030;-75
2021/07/29 03:36:33;;;;;;;14.10;9.52;;;;;;;;;;4974274;28;20030;-75
2021/07/29 03:38:59;;;;;;;14.48;10.00;;;;;;;;;;4974851;28;20014;-75
2021/07/29 03:41:25;;;;;;;14.13;9.68;;;;;;;;;;4974098;28;20479;-75
2021/07/29 03:43:50;;;;;;;12.82;9.15;;;;;;;;;;4972902;28;20054;-74
2021/07/29 03:46:16;;;;;;;12.00;9.13;;;;;;;;;;4973644;28;20062;-75
2021/07/29 03:48:41;;;;;;;14.23;9.65;;;;;;;;;;4974202;28;20118;-74
2021/07/29 03:51:12;;;;;;;12.50;8.98;;;;;;;;;;4975150;28;20034;-75
2021/07/29 03:53:38;;;;;;;13.10;8.43;;;;;;;;;;4976342;28;20022;-75
2021/07/29 03:56:04;;;;;;;10.70;9.25;;;;;;;;;;4974096;28;20105;-75
2021/07/29 03:58:30;;;;;;;12.38;9.20;;;;;;;;;;4973470;28;20092;-75
2021/07/29 04:00:56;;;;;;;13.68;9.43;;;;;;;;;;4973183;28;20027;-75
2021/07/29 04:03:22;;;;;;;21.30;9.55;;;;;;;;;;4973867;28;20105;-75
2021/07/29 04:05:47;;;;;;;14.95;9.90;;;;;;;;;;4974462;28;20108;-75
2021/07/29 04:08:13;;;;;;;13.60;9.65;;;;;;;;;;4973121;28;20034;-75
2021/07/29 04:10:38;;;;;;;16.70;10.13;;;;;;;;;;4973545;28;20471;-75
2021/07/29 04:13:03;;;;;;;17.27;10.55;;;;;;;;;;4973751;28;20030;-75
2021/07/29 04:15:29;;;;;;;15.00;9.98;;;;;;;;;;4973314;28;20463;-74
2021/07/29 04:17:54;;;;;;;14.25;10.13;;;;;;;;;;4974186;28;20092;-74
2021/07/29 04:20:20;;;;;;;14.98;10.45;;;;;;;;;;4973861;28;20034;-75
2021/07/29 04:22:45;;;;;;;15.27;10.32;;;;;;;;;;4972983;28;20023;-74
2021/07/29 04:25:11;;;;;;;13.85;9.93;;;;;;;;;;4973588;28;20027;-75
2021/07/29 04:27:36;;;;;;;17.92;10.55;;;;;;;;;;4971995;28;20035;-74
2021/07/29 04:30:02;;;;;;;14.30;10.15;;;;;;;;;;4973484;28;20027;-74
2021/07/29 04:32:34;;;;;;;13.45;10.05;;;;;;;;;;4973782;28;20035;-74
2021/07/29 04:35:00;;;;;;;17.50;10.47;;;;;;;;;;4973448;28;20062;-75
2021/07/29 04:37:25;;;;;;;15.93;9.68;;;;;;;;;;4973308;28;20682;-74
2021/07/29 04:39:51;;;;;;;13.90;9.38;;;;;;;;;;4973477;28;20118;-74
2021/07/29 04:42:16;;;;;;;14.77;10.13;;;;;;;;;;4972275;28;20387;-74
2021/07/29 04:44:41;;;;;;;15.75;10.13;;;;;;;;;;4973447;28;20029;-74
2021/07/29 04:47:07;;;;;;;12.20;9.50;;;;;;;;;;4972922;28;20030;-75
2021/07/29 04:49:32;;;;;;;13.32;10.57;;;;;;;;;;4973268;28;20023;-75
2021/07/29 04:51:58;;;;;;;15.15;9.13;;;;;;;;;;4973347;28;20648;-75
2021/07/29 04:54:23;;;;;;;10.98;8.18;;;;;;;;;;4971494;28;20027;-76
2021/07/29 04:56:49;;;;;;;13.77;7.53;;;;;;;;;;4971881;28;20065;-76
2021/07/29 04:59:14;;;;;;;12.07;7.30;;;;;;;;;;4973408;28;20022;-75
2021/07/29 05:01:40;;;;;;;11.13;7.50;;;;;;;;;;4973279;28;20085;-75
2021/07/29 05:04:06;;;;;;;10.23;6.30;;;;;;;;;;4973027;28;20023;-76
2021/07/29 05:06:34;;;;;;;7.90;5.88;;;;;;;;;;4973009;28;20486;-76
2021/07/29 05:08:59;;;;;;;7.05;5.55;;;;;;;;;;4973016;28;20509;-75
2021/07/29 05:11:25;;;;;;;7.93;5.68;;;;;;;;;;4973003;28;20058;-76
2021/07/29 05:13:53;;;;;;;6.32;5.35;;;;;;;;;;4972808;28;20117;-76
2021/07/29 05:16:19;;;;;;;7.28;5.78;;;;;;;;;;4973140;28;20068;-77
2021/07/29 05:18:44;;;;;;;7.57;5.35;;;;;;;;;;4972942;28;20043;-77
2021/07/29 05:21:10;;;;;;;6.93;5.60;;;;;;;;;;4973130;28;20030;-77
2021/07/29 05:23:36;;;;;;;10.27;5.20;;;;;;;;;;4972921;28;20039;-77
2021/07/29 05:26:02;;;;;;;8.13;4.78;;;;;;;;;;4972798;28;20022;-77
2021/07/29 05:28:29;;;;;;;7.30;5.35;;;;;;;;;;4972138;28;20058;-76
2021/07/29 05:30:55;;;;;;;7.63;5.20;;;;;;;;;;4972825;28;20066;-76
2021/07/29 05:33:20;;;;;;;7.45;4.93;;;;;;;;;;4973213;28;20356;-77
2021/07/29 05:35:46;;;;;;;7.00;5.20;;;;;;;;;;4971521;28;20106;-76
2021/07/29 05:38:12;;;;;;;9.70;5.93;;;;;;;;;;4972736;28;20023;-76
2021/07/29 05:40:37;;;;;;;8.20;5.22;;;;;;;;;;4973064;28;20027;-76
2021/07/29 05:43:03;;;;;;;7.53;5.47;;;;;;;;;;4973931;28;20049;-76
2021/07/29 05:45:29;;;;;;;7.07;5.40;;;;;;;;;;4971546;28;20118;-76
2021/07/29 05:47:55;;;;;;;7.15;5.40;;;;;;;;;;4972746;28;20027;-77
2021/07/29 05:50:21;;;;;;;11.27;5.70;;;;;;;;;;4972871;28;20493;-77
2021/07/29 05:52:47;;;;;;;7.20;4.75;;;;;;;;;;4987278;28;20034;-77
2021/07/29 05:55:13;;;;;;;6.80;5.25;;;;;;;;;;4972631;28;20065;-77
2021/07/29 05:57:38;;;;;;;7.03;4.97;;;;;;;;;;4971137;28;20383;-77
2021/07/29 06:00:04;;;;;;;6.90;5.00;;;;;;;;;;4972636;28;20632;-77
2021/07/29 06:02:29;;;;;;;6.72;4.85;;;;;;;;;;4972619;28;20023;-77
2021/07/29 06:04:55;;;;;;;8.65;4.90;;;;;;;;;;4972674;28;20635;-77
2021/07/29 06:07:21;;;;;;;7.32;4.57;;;;;;;;;;4973523;28;20029;-77
2021/07/29 06:09:47;;;;;;;5.57;4.72;;;;;;;;;;4975923;28;20118;-76
2021/07/29 06:12:12;;;;;;;8.38;5.85;;;;;;;;;;4976254;28;20573;-77
2021/07/29 06:14:39;;;;;;;6.13;4.90;;;;;;;;;;4976106;28;20027;-77
2021/07/29 06:17:05;;;;;;;7.10;4.65;;;;;;;;;;4976224;28;20038;-77
2021/07/29 06:19:33;;;;;;;5.45;4.63;;;;;;;;;;4976228;28;20031;-78
2021/07/29 06:21:59;;;;;;;6.30;4.40;;;;;;;;;;4976056;28;20471;-77
2021/07/29 06:24:26;;;;;;;5.65;4.82;;;;;;;;;;4975978;28;20026;-76
2021/07/29 06:26:53;;;;;;;6.40;4.10;;;;;;;;;;4975782;28;20023;-77
2021/07/29 06:29:19;;;;;;;8.18;4.88;;;;;;;;;;4976030;28;20459;-78
2021/07/29 06:31:44;;;;;;;7.10;5.20;;;;;;;;;;4975627;28;20039;-77
2021/07/29 06:34:10;;;;;;;5.50;4.75;;;;;;;;;;4975216;28;20026;-78
2021/07/29 06:36:36;;;;;;;6.65;4.68;;;;;;;;;;4975634;28;20109;-77
2021/07/29 06:39:02;;;;;;;5.28;3.83;;;;;;;;;;4975637;28;20494;-79
2021/07/29 06:41:29;;;;;;;5.25;3.95;;;;;;;;;;4981132;28;20038;-77
2021/07/29 06:43:54;;;;;;;5.50;3.55;;;;;;;;;;4983686;28;20033;-78
2021/07/29 06:46:20;;;;;;;4.75;3.90;;;;;;;;;;4975859;28;20027;-77
2021/07/29 06:48:48;;;;;;;5.80;4.10;;;;;;;;;;4973940;28;20054;-77
2021/07/29 06:51:13;;;;;;;6.97;3.65;;;;;;;;;;4977246;28;20451;-77
2021/07/29 06:53:39;;;;;;;6.53;3.88;;;;;;;;;;4994998;28;20038;-77
2021/07/29 06:56:04;;;;;;;6.10;4.20;;;;;;;;;;4990327;28;20701;-77
2021/07/29 06:58:30;;;;;;;4.78;3.80;;;;;;;;;;4975560;28;20029;-77
2021/07/29 07:01:00;;;;;;;4.50;3.58;;;;;;;;;;4975288;28;20031;-77
2021/07/29 07:03:27;;;;;;;4.63;3.50;;;;;;;;;;4975155;28;20031;-77
2021/07/29 07:05:53;;;;;;;6.20;4.22;;;;;;;;;;4975864;28;20030;-77
2021/07/29 07:08:18;;;;;;;5.57;3.78;;;;;;;;;;4975642;28;20350;-77
2021/07/29 07:10:45;;;;;;;10.68;4.70;;;;;;;;;;4975477;28;20535;-77
2021/07/29 07:13:10;;;;;;;12.35;4.93;;;;;;;;;;4975697;28;20033;-75
2021/07/29 07:15:35;;;;;;;7.70;4.35;;;;;;;;;;4975377;28;20113;-74
2021/07/29 07:18:01;;;;;;;7.55;5.00;;;;;;;;;;4974760;28;20047;-74
2021/07/29 07:20:26;;;;;;;8.95;5.72;;;;;;;;;;4965845;28;20440;-75
2021/07/29 07:22:56;;;;;;;9.52;6.22;;;;;;;;;;4966816;28;20545;-74
2021/07/29 07:25:22;;;;;;;9.93;5.95;;;;;;;;;;4971016;28;20053;-74
2021/07/29 07:27:47;;;;;;;12.43;5.88;;;;;;;;;;4974881;28;20026;-75
2021/07/29 07:48:05;;;;;;;6.22;2.97;;;;;;;;;;5146197;27;20122;-76
2021/07/29 07:50:30;;;;;;;6.13;3.22;;;;;;;;;;5148053;27;20027;-76
2021/07/29 07:52:55;;;;;;;5.13;3.10;;;;;;;;;;5149697;27;20022;-76
2021/07/29 07:55:21;;;;;;;6.30;3.25;;;;;;;;;;5149279;27;20027;-76
2021/07/29 07:57:46;;;;;;;5.53;3.17;;;;;;;;;;5149277;27;20026;-77
2021/07/29 08:00:12;;;;;;;5.13;3.28;;;;;;;;;;5149214;27;20027;-77
2021/07/29 08:02:38;;;;;;;6.38;3.05;;;;;;;;;;5149287;27;20540;-76
2021/07/29 08:05:03;;;;;;;6.28;3.63;;;;;;;;;;5149427;27;20019;-77
2021/07/29 08:07:29;;;;;;;4.93;3.17;;;;;;;;;;5148952;27;20023;-79
2021/07/29 08:09:56;;;;;;;5.00;3.10;;;;;;;;;;5149348;27;20614;-77
2021/07/29 08:12:22;;;;;;;7.28;2.97;;;;;;;;;;5148061;27;20026;-78
2021/07/29 08:14:47;;;;;;;6.57;2.95;;;;;;;;;;5148708;27;20030;-77
2021/07/29 08:17:13;;;;;;;3.80;2.67;;;;;;;;;;5149144;27;20480;-77
2021/07/29 08:19:38;;;;;;;6.28;2.90;;;;;;;;;;5149053;27;20029;-78
2021/07/29 08:22:04;;;;;;;4.50;2.63;;;;;;;;;;5148161;27;20029;-77
2021/07/29 08:24:29;;;;;;;5.18;2.45;;;;;;;;;;5145593;27;20030;-77
2021/07/29 08:26:57;;;;;;;5.90;3.25;;;;;;;;;;5148661;27;20501;-77
2021/07/29 08:29:22;;;;;;;5.53;3.45;;;;;;;;;;5149256;27;20280;-75
2021/07/29 08:31:48;;;;;;;5.38;3.33;;;;;;;;;;5148473;27;20026;-76
2021/07/29 08:34:13;;;;;;;5.00;3.38;;;;;;;;;;5149176;27;20026;-77
2021/07/29 08:36:42;;;;;;;5.97;3.10;;;;;;;;;;5148449;27;20019;-76
2021/07/29 08:39:08;;;;;;;5.78;3.63;;;;;;;;;;5148309;27;20111;-77
2021/07/29 08:41:34;;;;;;;5.25;3.80;;;;;;;;;;5148476;27;20054;-77
2021/07/29 08:44:00;;;;;;;5.00;4.00;;;;;;;;;;5148669;27;20046;-76
2021/07/29 08:46:26;;;;;;;7.15;4.00;;;;;;;;;;5148136;27;20047;-78
2021/07/29 08:48:51;;;;;;;7.35;3.80;;;;;;;;;;5135171;27;20467;-76
2021/07/29 08:51:20;;;;;;;4.82;3.90;;;;;;;;;;5115783;27;20031;-78
2021/07/29 08:53:48;;;;;;;4.32;3.20;;;;;;;;;;5134376;27;20031;-78
2021/07/29 08:56:14;;;;;;;7.03;4.18;;;;;;;;;;5134560;27;20023;-76
2021/07/29 08:58:43;;;;;;;5.65;3.70;;;;;;;;;;5134426;27;20034;-78
2021/07/29 09:01:09;;;;;;;5.65;4.10;;;;;;;;;;5131299;27;20114;-77
2021/07/29 09:03:36;;;;;;;10.27;5.20;;;;;;;;;;5121871;27;20023;-77
2021/07/29 09:06:06;;;;;;;5.43;4.75;;;;;;;;;;5132716;27;20394;-77
2021/07/29 09:09:04;;;;;;;7.40;3.88;;;;;;;;;;5125420;27;20042;-76
2021/07/29 09:11:38;;;;;;;9.43;3.47;;;;;;;;;;5087965;27;20126;-76
2021/07/29 09:14:12;;;;;;;4.57;2.97;;;;;;;;;;5127381;27;20139;-77
2021/07/29 09:17:07;;;;;;;6.28;2.75;;;;;;;;;;5132150;27;20398;-76
2021/07/29 09:19:40;;;;;;;4.78;2.70;;;;;;;;;;5126952;27;20081;-77
2021/07/29 09:22:10;;;;;;;5.30;2.40;;;;;;;;;;5130244;27;20450;-75
2021/07/29 09:25:12;;;;;;;4.65;2.13;;;;;;;;;;5129759;27;20470;-77
2021/07/29 09:27:37;;;;;;;5.07;2.45;;;;;;;;;;5127459;27;20035;-76
2021/07/29 09:30:15;;;;;;;7.30;2.40;;;;;;;;;;5128035;27;20110;-78
2021/07/29 09:33:07;;;;;;;5.20;2.53;;;;;;;;;;5124360;27;20477;-78
2021/07/29 09:35:35;;;;;;;4.28;2.70;;;;;;;;;;5123944;27;20027;-76
2021/07/29 09:38:07;;;;;;;5.30;2.83;;;;;;;;;;5134018;27;20023;-77
2021/07/29 09:40:44;;;;;;;4.35;3.05;;;;;;;;;;5131937;27;20023;-76
2021/07/29 09:43:13;;;;;;;5.15;2.83;;;;;;;;;;5123647;27;20160;-75
2021/07/29 09:45:39;;;;;;;5.30;2.63;;;;;;;;;;5132597;27;20043;-76
2021/07/29 09:48:07;;;;;;;7.03;2.60;;;;;;;;;;5132858;27;20023;-76
2021/07/29 09:50:34;;;;;;;3.58;2.50;;;;;;;;;;5124460;27;20545;-76
2021/07/29 09:53:00;;;;;;;4.50;3.17;;;;;;;;;;5127757;27;20484;-76
2021/07/29 09:55:28;;;;;;;6.72;2.90;;;;;;;;;;5132317;27;20170;-77
2021/07/29 09:57:53;;;;;;;4.03;2.47;;;;;;;;;;5126594;27;20469;-76
2021/07/29 10:00:19;;;;;;;7.75;3.05;;;;;;;;;;5120314;27;20030;-75
2021/07/29 10:02:46;;;;;;;5.78;2.92;;;;;;;;;;5119619;27;20034;-78
2021/07/29 10:05:15;;;;;;;4.63;2.80;;;;;;;;;;5119793;27;20030;-76
2021/07/29 10:07:45;;;;;;;3.55;2.67;;;;;;;;;;5125319;27;20027;-77
2021/07/29 10:10:12;;;;;;;4.18;2.75;;;;;;;;;;5131900;27;20109;-76
2021/07/29 10:12:38;;;;;;;4.90;2.58;;;;;;;;;;5127001;27;20023;-76
2021/07/29 10:15:04;;;;;;;5.07;2.50;;;;;;;;;;5128268;27;20023;-75
2021/07/29 10:17:36;;;;;;;5.50;2.97;;;;;;;;;;5126111;27;20135;-75
2021/07/29 10:20:10;;;;;;;5.07;2.30;;;;;;;;;;5131458;27;20018;-73
2021/07/29 10:22:36;;;;;;;4.47;2.35;;;;;;;;;;5128548;27;20028;-73
2021/07/29 10:25:01;;;;;;;4.40;2.53;;;;;;;;;;5120649;27;20031;-73
2021/07/29 10:27:27;;;;;;;6.68;2.30;;;;;;;;;;5130005;27;20110;-74
2021/07/29 10:29:53;;;;;;;5.15;2.25;;;;;;;;;;5130564;27;20035;-74
2021/07/29 10:32:50;;;;;;;4.22;2.38;;;;;;;;;;5131557;27;20385;-73
2021/07/29 10:35:31;;;;;;;3.78;2.05;;;;;;;;;;5131567;27;20068;-74
2021/07/29 10:37:58;;;;;;;6.45;2.45;;;;;;;;;;5129504;27;20038;-74
2021/07/29 10:40:38;;;;;;;5.03;2.20;;;;;;;;;;5115162;27;20019;-74
2021/07/29 10:43:26;;;;;;;5.80;2.42;;;;;;;;;;5110246;27;20359;-75
2021/07/29 10:45:53;;;;;;;5.80;2.53;;;;;;;;;;5122379;27;20019;-73
2021/07/29 10:49:12;;;;;;;3.92;2.30;;;;;;;;;;5125154;27;20019;-74
2021/07/29 10:51:58;;;;;;;4.65;2.00;;;;;;;;;;5109323;27;20030;-75
2021/07/29 10:54:27;;;;;;;4.85;1.90;;;;;;;;;;5111660;27;20424;-77
2021/07/29 10:56:53;;;;;;;3.67;2.05;;;;;;;;;;5123067;27;20051;-75
2021/07/29 10:59:18;;;;;;;3.38;2.00;;;;;;;;;;5132664;27;20045;-72
2021/07/29 11:01:45;;;;;;;3.38;1.67;;;;;;;;;;5131914;27;20051;-74
2021/07/29 11:04:11;;;;;;;3.55;1.90;;;;;;;;;;5129523;27;20015;-72
2021/07/29 11:06:40;;;;;;;4.88;1.90;;;;;;;;;;5128428;27;20377;-72
2021/07/29 11:09:15;;;;;;;4.90;1.77;;;;;;;;;;5128877;27;20023;-74
2021/07/29 11:11:45;;;;;;;4.57;1.90;;;;;;;;;;5129509;27;20030;-73
2021/07/29 11:14:11;;;;;;;4.20;2.10;;;;;;;;;;5130413;27;20058;-73
2021/07/29 11:16:37;;;;;;;3.75;2.00;;;;;;;;;;5130439;27;20015;-73
2021/07/29 11:19:04;;;;;;;6.72;1.83;;;;;;;;;;5130159;27;20129;-73
2021/07/29 11:21:31;;;;;;;4.93;1.90;;;;;;;;;;5130488;27;20549;-73
2021/07/29 11:23:56;;;;;;;6.20;1.92;;;;;;;;;;5131817;27;20465;-73
2021/07/29 11:26:22;;;;;;;8.05;2.33;;;;;;;;;;5131536;27;20038;-73
2021/07/29 11:29:14;;;;;;;5.78;1.83;;;;;;;;;;5130706;27;20027;-73
2021/07/29 11:31:40;;;;;;;5.05;2.70;;;;;;;;;;5127307;27;20039;-73
2021/07/29 11:34:06;;;;;;;4.68;2.00;;;;;;;;;;5130759;28;20351;-74
2021/07/29 11:36:32;;;;;;;7.50;1.90;;;;;;;;;;5130284;28;20192;-73
2021/07/29 11:39:07;;;;;;;4.20;1.70;;;;;;;;;;5130054;28;20437;-73
2021/07/29 11:41:52;;;;;;;5.55;1.88;;;;;;;;;;5130704;28;20075;-73
2021/07/29 11:44:18;;;;;;;4.75;1.92;;;;;;;;;;5129940;28;20027;-73
2021/07/29 11:46:54;;;;;;;4.97;1.90;;;;;;;;;;5129904;28;20091;-72
2021/07/29 11:49:19;;;;;;;4.20;1.83;;;;;;;;;;5131626;28;20029;-72
2021/07/29 11:52:11;;;;;;;2.95;1.80;;;;;;;;;;5131487;28;20023;-72
2021/07/29 11:54:37;;;;;;;3.58;1.70;;;;;;;;;;5131665;28;20026;-72
2021/07/29 11:57:04;;;;;;;5.07;1.52;;;;;;;;;;5131355;28;20473;-72
2021/07/29 11:59:39;;;;;;;5.80;2.10;;;;;;;;;;5131590;28;20023;-73
2021/07/29 12:02:06;;;;;;;9.02;1.98;;;;;;;;;;5130391;28;20106;-72
2021/07/29 12:04:42;;;;;;;6.80;1.88;;;;;;;;;;5131493;28;20066;-72
2021/07/29 12:07:09;;;;;;;3.70;1.50;;;;;;;;;;5131365;28;20102;-74
2021/07/29 12:09:40;;;;;;;3.80;1.70;;;;;;;;;;5131551;28;20095;-73
2021/07/29 12:12:06;;;;;;;11.13;1.88;;;;;;;;;;5131287;28;20031;-73
2021/07/29 12:14:32;;;;;;;4.90;2.10;;;;;;;;;;5131423;28;20026;-72
2021/07/29 12:16:57;;;;;;;8.43;1.67;;;;;;;;;;5131307;28;20030;-73
2021/07/29 12:19:23;;;;;;;8.75;1.95;;;;;;;;;;5131473;28;20023;-73
2021/07/29 12:21:51;;;;;;;6.68;2.00;;;;;;;;;;5131294;27;20146;-74
2021/07/29 12:24:17;;;;;;;6.72;1.50;;;;;;;;;;5135062;27;20045;-73
2021/07/29 12:27:10;;;;;;;4.28;1.77;;;;;;;;;;5134991;27;20105;-73
2021/07/29 12:29:43;;;;;;;5.78;1.60;;;;;;;;;;5131429;27;20046;-73
2021/07/29 12:32:18;;;;;;;7.25;1.70;;;;;;;;;;5135173;27;20068;-74
2021/07/29 12:34:44;;;;;;;5.22;1.60;;;;;;;;;;5134946;27;20019;-74
2021/07/29 12:37:09;;;;;;;6.50;1.77;;;;;;;;;;5134941;27;20374;-74
2021/07/29 12:39:35;;;;;;;7.00;1.80;;;;;;;;;;5134960;27;20027;-73
2021/07/29 12:42:20;;;;;;;11.35;1.83;;;;;;;;;;5134877;27;20544;-74
2021/07/29 12:44:56;;;;;;;5.68;1.73;;;;;;;;;;5134679;27;20081;-75
2021/07/29 12:47:22;;;;;;;4.53;1.67;;;;;;;;;;5134444;27;20420;-74
2021/07/29 12:49:47;;;;;;;5.85;1.50;;;;;;;;;;5134942;27;20023;-74
2021/07/29 12:52:21;;;;;;;4.80;1.90;;;;;;;;;;5134816;27;20081;-73
2021/07/29 12:55:00;;;;;;;5.80;1.80;;;;;;;;;;5134469;27;20027;-74
2021/07/29 12:57:26;;;;;;;5.50;1.80;;;;;;;;;;5134958;27;20023;-73
2021/07/29 12:59:52;;;;;;;5.82;1.65;;;;;;;;;;5134456;27;20474;-75
2021/07/29 13:02:17;;;;;;;5.22;1.90;;;;;;;;;;5134587;27;20062;-74
2021/07/29 13:04:43;;;;;;;4.22;1.73;;;;;;;;;;5134602;27;20074;-74
2021/07/29 13:07:08;;;;;;;6.90;1.88;;;;;;;;;;5134125;27;20020;-73
2021/07/29 13:09:36;;;;;;;3.95;1.48;;;;;;;;;;5134419;27;20023;-74
2021/07/29 13:12:03;;;;;;;5.65;1.48;;;;;;;;;;5134194;27;20030;-74
2021/07/29 13:14:29;;;;;;;2.38;1.33;;;;;;;;;;5134409;27;20034;-74
2021/07/29 13:16:54;;;;;;;4.30;1.45;;;;;;;;;;5134148;27;20019;-75
2021/07/29 13:19:20;;;;;;;6.13;1.65;;;;;;;;;;5134324;27;20477;-76
2021/07/29 13:21:45;;;;;;;4.20;1.40;;;;;;;;;;5133967;27;20034;-74
2021/07/29 13:24:11;;;;;;;5.28;1.75;;;;;;;;;;5134183;27;20423;-74
2021/07/29 13:26:36;;;;;;;3.13;1.52;;;;;;;;;;5134121;27;20110;-75
2021/07/29 13:29:02;;;;;;;2.97;1.60;;;;;;;;;;5134097;27;20067;-73
2021/07/29 13:31:27;;;;;;;6.07;1.70;;;;;;;;;;5134077;27;20501;-75
2021/07/29 13:33:53;;;;;;;6.25;1.70;;;;;;;;;;5133694;27;20026;-74
2021/07/29 13:36:18;;;;;;;4.28;1.77;;;;;;;;;;5133929;27;20045;-74
2021/07/29 13:38:44;;;;;;;5.88;1.92;;;;;;;;;;5134075;27;20046;-74
2021/07/29 13:41:09;;;;;;;8.25;1.70;;;;;;;;;;5133752;27;20475;-74
2021/07/29 13:43:35;;;;;;;4.05;1.75;;;;;;;;;;5133888;27;20098;-75
2021/07/29 13:46:00;;;;;;;4.05;1.75;;;;;;;;;;5133228;27;20031;-75
2021/07/29 13:48:26;;;;;;;3.60;2.00;;;;;;;;;;5133584;27;20030;-74
2021/07/29 13:50:51;;;;;;;6.20;2.35;;;;;;;;;;5133482;27;20026;-74
2021/07/29 13:53:18;;;;;;;4.28;1.90;;;;;;;;;;5133643;27;20038;-74
2021/07/29 13:55:44;;;;;;;7.85;2.10;;;;;;;;;;5133492;27;20023;-74
2021/07/29 13:58:09;;;;;;;8.65;2.10;;;;;;;;;;5133243;27;20071;-75
2021/07/29 14:00:34;;;;;;;5.97;1.85;;;;;;;;;;5133420;27;20022;-73
2021/07/29 14:03:00;;;;;;;6.18;2.00;;;;;;;;;;5133298;27;20027;-73
2021/07/29 14:05:26;;;;;;;5.30;2.40;;;;;;;;;;5114843;27;20494;-75
2021/07/29 14:07:51;;;;;;;3.97;1.60;;;;;;;;;;5133031;27;20167;-75
2021/07/29 14:10:17;;;;;;;3.75;1.52;;;;;;;;;;5133201;27;20019;-76
2021/07/29 14:12:43;;;;;;;6.70;1.90;;;;;;;;;;5133440;27;20411;-74
2021/07/29 14:15:10;;;;;;;4.57;1.50;;;;;;;;;;5114862;27;20247;-73
2021/07/29 14:25:26;;;;;;;4.20;1.83;;;;;;;;;;5133421;27;20027;-73
2021/07/29 14:27:52;;;;;;;4.10;2.25;;;;;;;;;;5132752;27;20023;-74
2021/07/29 14:30:18;;;;;;;6.88;1.42;;;;;;;;;;5133139;27;20418;-76
2021/07/29 14:32:44;;;;;;;7.15;1.40;;;;;;;;;;5132813;27;20026;-74
2021/07/29 14:35:09;;;;;;;4.03;1.50;;;;;;;;;;5132647;27;20031;-73
2021/07/29 14:37:35;;;;;;;4.32;1.50;;;;;;;;;;5132636;27;20508;-73
2021/07/29 14:40:02;;;;;;;4.72;1.23;;;;;;;;;;5132431;27;20019;-73
2021/07/29 14:42:27;;;;;;;5.63;1.40;;;;;;;;;;5132588;27;20110;-73
2021/07/29 14:50:09;;;;;;;4.72;1.33;;;;;;;;;;5132300;27;20037;-73
2021/07/29 14:52:35;;;;;;;4.18;1.35;;;;;;;;;;5132449;27;20034;-73
2021/07/29 14:55:09;;;;;;;4.03;1.58;;;;;;;;;;5132249;27;20122;-73
2021/07/29 16:09:08;;;;;;;4.13;2.20;;;;;;;;;;5114833;28;20054;-74
2021/07/29 16:11:35;;;;;;;3.75;1.70;;;;;;;;;;5115006;28;20470;-74
2021/07/29 16:14:05;;;;;;;5.25;1.70;;;;;;;;;;5114786;28;20024;-74
2021/07/29 16:16:31;;;;;;;3.92;1.63;;;;;;;;;;5114948;28;20023;-72
2021/07/29 16:18:57;;;;;;;3.78;1.40;;;;;;;;;;5114651;28;20027;-74
2021/07/29 16:21:22;;;;;;;3.40;1.45;;;;;;;;;;5114736;28;20032;-74